Bishop, Texas
Current Conditions -  °F | °C
As of 1:56 PM on Friday 31 Oct 2014 (Local Time) from KNQI Reporting Station
Broken Clouds Broken Clouds  
Wind Chill: 78°   Ceiling: 25000
Heat Index: 79°   Visibility: 10mi
Dew Point: 60°   Wind: 15mph
Humidity: 54%   Direction: 40°NE
Pressure: 30.18"   Gusts: 22mph
Location:  27.59°N, 97.8°W
Report Text: KNQI 311856Z 04013G19KT 10SM FEW080 SCT190 BKN250 26/16 A3018 RMK AO2 SLP217 T02560156 $
Loading
Personal Weather Stations






























Interactive Weather Map New forecast layout! Learn more

10-Day Weather Forecast

Advertisements
Track Severe Weather on mobile